Wan Hai 508 — 9VJJ6 — position and weather

sailwx.info

Track history (hours):
 
Tides and Currents Weather Stations Pressure Air Temp Water Temp Dewpoint Dewpoint Depression Visibility Wind Speed Wind Dir Waves Ship Positions

Wan Hai 508

Last reported at 2016-Sep-25 21:33 UTC. Time now 2016-Sep-26 15:41 UTC.
Position N 01°43' E 102°48'.

Length 269 m; draft 9.4 m.

Type: Cargo ship. MMSI: 565567000.

Date/timePositionNaut miles runAvg speedWind from/ knotsBaromVisibWave heightAir tempDewpointWater temp
2016-Sep-25 21:33N 01°43' E 102°48'5914.7
2016-Sep-25 17:33N 01°12' E 103°38'9 8.8
2016-Sep-25 16:33N 01°17' E 103°45'1 0.7
2016-Sep-25 15:33N 01°17' E 103°46'0 0.0
2016-Sep-25 14:31N 01°17' E 103°46'0 0.0
2016-Sep-25 10:25N 01°17' E 103°46'0 0.0
2016-Sep-25 09:31N 01°17' E 103°46'1 0.6
2016-Sep-25 07:34N 01°16' E 103°46'4 1.4
2016-Sep-25 04:31N 01°16' E 103°50'0 0.0
2016-Sep-25 00:28N 01°16' E 103°50'0 0.0
2016-Sep-24 22:31N 01°16' E 103°50'0 0.0
2016-Sep-24 21:22N 01°16' E 103°50'0 0.0
2016-Sep-24 19:31N 01°16' E 103°50'0 0.0
2016-Sep-24 18:31N 01°16' E 103°50'2 2.2
2016-Sep-24 17:33N 01°15' E 103°52'3 3.2
2016-Sep-24 16:33N 01°13' E 103°54'17 8.3
2016-Sep-24 14:34N 01°04' E 103°41'13 6.4
2016-Sep-24 12:33N 01°10' E 103°30'2010.0
2016-Sep-24 10:33N 01°22' E 103°13'154 4.5
2016-Sep-23 00:23N 03°06' E 101°19'1111.7
2016-Sep-22 23:27N 03°14' E 101°12'  
Track history (hours):
 
Tides and Currents Weather Stations Pressure Air Temp Water Temp Dewpoint Dewpoint Depression Visibility Wind Speed Wind Dir Waves Ship Positions

Wan Hai 508

Last reported at 2016-Sep-25 21:33 UTC. Time now 2016-Sep-26 15:41 UTC.
Position N 01°43' E 102°48'.

Length 269 m; draft 9.4 m.

Type: Cargo ship. MMSI: 565567000.

Date/timePositionNaut miles runAvg speedWind from/ knotsBaromVisibWave heightAir tempDewpointWater temp
2016-Sep-25 21:33N 01°43' E 102°48'5914.7
2016-Sep-25 17:33N 01°12' E 103°38'9 8.8
2016-Sep-25 16:33N 01°17' E 103°45'1 0.7
2016-Sep-25 15:33N 01°17' E 103°46'0 0.0
2016-Sep-25 14:31N 01°17' E 103°46'0 0.0
2016-Sep-25 10:25N 01°17' E 103°46'0 0.0
2016-Sep-25 09:31N 01°17' E 103°46'1 0.6
2016-Sep-25 07:34N 01°16' E 103°46'4 1.4
2016-Sep-25 04:31N 01°16' E 103°50'0 0.0
2016-Sep-25 00:28N 01°16' E 103°50'0 0.0
2016-Sep-24 22:31N 01°16' E 103°50'0 0.0
2016-Sep-24 21:22N 01°16' E 103°50'0 0.0
2016-Sep-24 19:31N 01°16' E 103°50'0 0.0
2016-Sep-24 18:31N 01°16' E 103°50'2 2.2
2016-Sep-24 17:33N 01°15' E 103°52'3 3.2
2016-Sep-24 16:33N 01°13' E 103°54'17 8.3
2016-Sep-24 14:34N 01°04' E 103°41'13 6.4
2016-Sep-24 12:33N 01°10' E 103°30'2010.0
2016-Sep-24 10:33N 01°22' E 103°13'154 4.5
2016-Sep-23 00:23N 03°06' E 101°19'1111.7
2016-Sep-22 23:27N 03°14' E 101°12'  

Dump ship's entire track history